Time;durP1;ratioP1;P1;durP2;ratioP2;P2;SDS_P1;SDS_P2;PMS_P1;PMS_P2;Temp;Humidity;BMP_temperature;BMP_pressure;BME280_temperature;BME280_humidity;BME280_pressure;Samples;Min_cycle;Max_cycle;Signal;HPM_P1;HPM_P2
2023/06/05 00:00:09;;;;;;;13.13;3.60;;;11.30;71.90;;;;;;6011241;23;20732;-64
2023/06/05 00:02:37;;;;;;;5.90;2.43;;;11.30;71.60;;;;;;6010370;23;20420;-64
2023/06/05 00:05:08;;;;;;;6.57;2.97;;;11.20;70.20;;;;;;6011127;23;20429;-64
2023/06/05 00:07:37;;;;;;;5.43;2.60;;;11.30;70.30;;;;;;6010096;23;20401;-64
2023/06/05 00:10:05;;;;;;;6.90;3.10;;;11.30;69.70;;;;;;6010806;23;20948;-64
2023/06/05 00:12:32;;;;;;;6.10;3.00;;;11.30;70.20;;;;;;6010768;23;20449;-64
2023/06/05 00:14:58;;;;;;;5.87;2.50;;;11.30;70.20;;;;;;6011053;23;20426;-64
2023/06/05 00:17:25;;;;;;;7.67;2.90;;;11.30;70.20;;;;;;6010589;23;20447;-64
2023/06/05 00:19:53;;;;;;;5.33;2.47;;;11.40;70.30;;;;;;6010839;23;20417;-64
2023/06/05 00:22:20;;;;;;;6.17;2.80;;;11.30;70.20;;;;;;6010496;23;20420;-64
2023/06/05 00:24:47;;;;;;;5.77;2.47;;;11.20;70.40;;;;;;6010765;23;20526;-64
2023/06/05 00:27:13;;;;;;;6.70;2.90;;;11.20;72.70;;;;;;6010879;23;20747;-64
2023/06/05 00:29:41;;;;;;;6.63;2.87;;;11.20;73.20;;;;;;6010477;23;20773;-64
2023/06/05 00:32:07;;;;;;;6.20;2.30;;;11.20;73.80;;;;;;6010222;23;20424;-64
2023/06/05 00:34:34;;;;;;;7.87;3.47;;;11.10;75.00;;;;;;6010884;23;20740;-64
2023/06/05 00:37:02;;;;;;;9.10;2.67;;;11.10;75.80;;;;;;6010615;23;20745;-64
2023/06/05 00:39:29;;;;;;;6.50;2.63;;;11.10;78.00;;;;;;6010636;23;20427;-64
2023/06/05 00:41:56;;;;;;;8.47;2.90;;;11.00;77.90;;;;;;6010093;23;20435;-64
2023/06/05 00:44:23;;;;;;;5.57;2.80;;;11.00;80.30;;;;;;6010549;23;20424;-64
2023/06/05 00:46:51;;;;;;;10.77;3.60;;;10.90;82.80;;;;;;6010184;23;20424;-64
2023/06/05 00:49:19;;;;;;;7.20;3.07;;;10.80;85.50;;;;;;6010777;23;20419;-64
2023/06/05 00:51:47;;;;;;;7.03;4.07;;;10.80;89.90;;;;;;6011043;23;20739;-64
2023/06/05 00:54:15;;;;;;;7.37;3.93;;;10.80;91.30;;;;;;6010664;23;20447;-64
2023/06/05 00:56:42;;;;;;;7.33;3.63;;;10.70;91.30;;;;;;6010762;23;20443;-64
2023/06/05 00:59:10;;;;;;;8.33;4.63;;;10.70;93.40;;;;;;6010681;23;20420;-64
2023/06/05 01:01:38;;;;;;;11.30;5.40;;;10.60;94.60;;;;;;6010267;23;20427;-64
2023/06/05 01:04:05;;;;;;;7.17;5.37;;;10.60;95.50;;;;;;6009956;23;20422;-64
2023/06/05 01:06:33;;;;;;;7.53;4.70;;;10.60;97.80;;;;;;6010624;23;20419;-64
2023/06/05 01:09:00;;;;;;;7.70;5.90;;;10.50;97.80;;;;;;6010007;23;20893;-64
2023/06/05 01:11:38;;;;;;;8.47;5.63;;;10.50;99.30;;;;;;6010136;23;20445;-64
2023/06/05 01:14:16;;;;;;;12.40;9.17;;;10.40;99.20;;;;;;6009132;23;20865;-64
2023/06/05 01:16:45;;;;;;;16.90;15.70;;;10.30;99.90;;;;;;6009812;23;20404;-64
2023/06/05 01:19:15;;;;;;;21.27;19.77;;;10.30;99.90;;;;;;6010528;23;20421;-64
2023/06/05 01:21:41;;;;;;;18.73;17.17;;;10.30;99.90;;;;;;6009977;23;20424;-64
2023/06/05 01:24:13;;;;;;;28.47;26.87;;;10.20;99.90;;;;;;6010118;23;20420;-64
2023/06/05 01:26:52;;;;;;;38.13;35.93;;;10.20;99.90;;;;;;6010475;23;20725;-64
2023/06/05 01:29:24;;;;;;;53.77;51.17;;;10.20;99.90;;;;;;6009421;23;20408;-64
2023/06/05 01:31:57;;;;;;;63.10;60.50;;;10.10;99.90;;;;;;6010038;23;20407;-64
2023/06/05 01:34:25;;;;;;;63.80;61.00;;;10.10;99.90;;;;;;6010483;23;20456;-64
2023/06/05 01:36:53;;;;;;;45.70;43.73;;;10.10;99.90;;;;;;6010202;23;20751;-64
2023/06/05 01:39:23;;;;;;;46.37;44.30;;;10.00;99.90;;;;;;6010517;23;20419;-64
2023/06/05 01:41:55;;;;;;;88.07;84.73;;;9.90;99.90;;;;;;6008455;23;20779;-64
2023/06/05 01:44:23;;;;;;;116.90;112.33;;;9.90;99.90;;;;;;6009522;23;20419;-64
2023/06/05 01:46:50;;;;;;;139.97;135.27;;;10.00;99.90;;;;;;6010022;23;20428;-64
2023/06/05 01:49:17;;;;;;;124.30;119.90;;;10.00;99.90;;;;;;6009583;23;20421;-64
2023/06/05 01:51:44;;;;;;;146.57;141.70;;;10.00;99.90;;;;;;6010292;23;20447;-64
2023/06/05 01:54:11;;;;;;;211.23;204.47;;;10.00;99.90;;;;;;6009395;23;20943;-64
2023/06/05 01:56:39;;;;;;;237.07;229.27;;;9.90;99.90;;;;;;6009834;23;20425;-64
2023/06/05 01:59:08;;;;;;;283.23;274.13;;;9.90;99.90;;;;;;6009946;23;20987;-64
2023/06/05 02:01:35;;;;;;;273.17;264.37;;;9.90;99.90;;;;;;6010197;23;20576;-63
2023/06/05 02:04:05;;;;;;;290.87;281.27;;;9.90;99.90;;;;;;6009772;23;20730;-64
2023/06/05 02:06:41;;;;;;;265.63;256.67;;;9.80;99.90;;;;;;6010213;23;20791;-64
2023/06/05 02:09:08;;;;;;;310.97;300.47;;;9.70;99.90;;;;;;6010400;23;20404;-63
2023/06/05 02:11:36;;;;;;;365.43;352.63;;;9.70;99.90;;;;;;6009826;23;20451;-64
2023/06/05 02:14:04;;;;;;;460.97;442.47;;;9.70;99.90;;;;;;6009163;23;20423;-64
2023/06/05 02:16:31;;;;;;;535.00;512.60;;;9.60;99.90;;;;;;6009880;23;20419;-64
2023/06/05 02:19:03;;;;;;;551.60;528.97;;;9.60;99.90;;;;;;6010029;23;20419;-64
2023/06/05 02:21:32;;;;;;;588.93;563.97;;;9.70;99.90;;;;;;6009807;23;20439;-64
2023/06/05 02:23:59;;;;;;;593.43;568.63;;;9.70;99.90;;;;;;6009892;23;20427;-64
2023/06/05 02:26:26;;;;;;;525.90;505.00;;;9.70;99.90;;;;;;6009830;23;20423;-64
2023/06/05 02:28:54;;;;;;;485.37;467.37;;;9.60;99.90;;;;;;6009591;23;20892;-64
2023/06/05 02:31:24;;;;;;;450.43;434.17;;;9.60;99.90;;;;;;6010819;23;20442;-64
2023/06/05 02:33:52;;;;;;;547.10;525.90;;;9.50;99.90;;;;;;6011328;23;20478;-64
2023/06/05 02:36:19;;;;;;;648.30;620.10;;;9.50;99.90;;;;;;6011769;23;20987;-63
2023/06/05 02:38:48;;;;;;;659.13;630.63;;;9.50;99.90;;;;;;6011518;23;20419;-63
2023/06/05 02:41:15;;;;;;;699.37;668.03;;;9.60;99.90;;;;;;6011613;23;20416;-64
2023/06/05 02:43:42;;;;;;;660.90;632.53;;;9.60;99.90;;;;;;6010877;23;20426;-64
2023/06/05 02:46:08;;;;;;;719.47;687.33;;;9.50;99.90;;;;;;6011640;23;20419;-63
2023/06/05 02:48:37;;;;;;;680.87;651.33;;;9.40;99.90;;;;;;6011570;23;20420;-64
2023/06/05 02:51:06;;;;;;;706.67;675.07;;;9.40;99.90;;;;;;6011762;23;20741;-64
2023/06/05 02:53:32;;;;;;;783.47;746.20;;;9.30;99.90;;;;;;6010951;23;20422;-64
2023/06/05 02:56:01;;;;;;;809.40;769.50;;;9.30;99.90;;;;;;6011267;23;20446;-64
2023/06/05 02:58:28;;;;;;;832.03;790.10;;;9.30;99.90;;;;;;6011018;23;20927;-64
2023/06/05 03:00:55;;;;;;;867.00;821.93;;;9.40;99.90;;;;;;6011488;23;20511;-63
2023/06/05 03:03:25;;;;;;;883.13;836.43;;;9.40;99.90;;;;;;6011141;23;20451;-64
2023/06/05 03:05:53;;;;;;;854.17;809.17;;;9.40;99.90;;;;;;6011530;23;20429;-64
2023/06/05 03:08:20;;;;;;;873.47;825.80;;;9.30;99.90;;;;;;6011229;23;20430;-64
2023/06/05 03:10:47;;;;;;;885.20;836.33;;;9.30;99.90;;;;;;6011046;23;20439;-64
2023/06/05 03:13:14;;;;;;;900.30;850.23;;;9.30;99.90;;;;;;6010272;23;20419;-64
2023/06/05 03:15:42;;;;;;;895.60;847.53;;;9.40;99.90;;;;;;6011252;23;20430;-64
2023/06/05 03:18:08;;;;;;;873.53;828.33;;;9.40;99.90;;;;;;6011235;23;20418;-63
2023/06/05 03:20:36;;;;;;;876.10;830.50;;;9.30;99.90;;;;;;6011293;23;20421;-64
2023/06/05 03:23:04;;;;;;;908.53;860.63;;;9.30;99.90;;;;;;6010825;23;20426;-64
2023/06/05 03:25:30;;;;;;;915.73;863.63;;;9.20;99.90;;;;;;6011244;23;20419;-65
2023/06/05 03:27:57;;;;;;;908.10;855.93;;;9.20;99.90;;;;;;6011037;23;20433;-66
2023/06/05 03:30:24;;;;;;;909.77;855.40;;;9.20;99.90;;;;;;6011267;23;20446;-66
2023/06/05 03:32:51;;;;;;;914.20;859.80;;;9.30;99.90;;;;;;6008463;23;20422;-65
2023/06/05 03:35:18;;;;;;;912.30;858.63;;;9.20;99.90;;;;;;6009301;23;20419;-66
2023/06/05 03:37:45;;;;;;;908.37;854.50;;;9.20;99.90;;;;;;6011057;23;20430;-66
2023/06/05 03:40:13;;;;;;;923.70;865.43;;;9.20;99.90;;;;;;6011188;23;20758;-66
2023/06/05 03:42:40;;;;;;;917.67;859.53;;;9.20;99.90;;;;;;6009899;23;20435;-66
2023/06/05 03:45:08;;;;;;;913.87;854.50;;;9.20;99.90;;;;;;6011254;23;20419;-66
2023/06/05 03:47:35;;;;;;;911.17;849.70;;;9.20;99.90;;;;;;6010774;23;20423;-66
2023/06/05 03:50:03;;;;;;;913.93;853.20;;;9.20;99.90;;;;;;6011190;23;20419;-66
2023/06/05 03:52:30;;;;;;;917.20;857.17;;;9.20;99.90;;;;;;6010475;23;20442;-66
2023/06/05 03:54:57;;;;;;;919.83;860.03;;;9.20;99.90;;;;;;6010948;23;20738;-66
2023/06/05 03:57:25;;;;;;;915.33;854.73;;;9.20;99.90;;;;;;6010772;23;20420;-66
2023/06/05 03:59:52;;;;;;;885.23;824.50;;;9.20;99.90;;;;;;6010578;23;20419;-66
2023/06/05 04:02:19;;;;;;;864.00;803.00;;;9.20;99.90;;;;;;6010564;23;20707;-66
2023/06/05 04:04:46;;;;;;;867.00;803.07;;;9.20;99.90;;;;;;6011049;23;20419;-66
2023/06/05 04:07:12;;;;;;;860.73;801.40;;;9.30;99.90;;;;;;6010937;23;20517;-66
2023/06/05 04:09:39;;;;;;;863.57;803.53;;;9.30;99.90;;;;;;6010466;23;20424;-66
2023/06/05 04:12:06;;;;;;;854.17;795.10;;;9.30;99.90;;;;;;6010471;23;20443;-66
2023/06/05 04:14:35;;;;;;;853.33;795.90;;;9.40;99.90;;;;;;6010364;23;20420;-66
2023/06/05 04:17:02;;;;;;;844.63;791.20;;;9.50;99.90;;;;;;6010581;23;20419;-66
2023/06/05 04:19:30;;;;;;;854.90;798.53;;;9.60;99.90;;;;;;6010906;23;20419;-66
2023/06/05 04:21:56;;;;;;;860.83;804.83;;;9.70;99.90;;;;;;6010224;23;20467;-66
2023/06/05 04:24:25;;;;;;;839.43;784.70;;;9.70;99.90;;;;;;6010779;23;20427;-66
2023/06/05 04:26:53;;;;;;;851.13;796.70;;;9.80;99.90;;;;;;6010546;23;20506;-66
2023/06/05 04:29:19;;;;;;;847.13;792.77;;;9.90;99.90;;;;;;6010840;23;20419;-66
2023/06/05 04:31:48;;;;;;;848.47;796.07;;;10.10;99.90;;;;;;6010546;23;20440;-66
2023/06/05 04:34:18;;;;;;;846.23;795.73;;;10.10;99.90;;;;;;6009868;23;20417;-66
2023/06/05 04:36:46;;;;;;;847.10;796.00;;;10.20;99.90;;;;;;6010814;23;20722;-66
2023/06/05 04:39:14;;;;;;;860.50;805.43;;;10.20;99.90;;;;;;6010559;23;20797;-66
2023/06/05 04:41:44;;;;;;;864.90;810.90;;;10.20;99.90;;;;;;6008831;23;20928;-66
2023/06/05 04:44:12;;;;;;;847.77;795.73;;;10.30;99.90;;;;;;6010492;23;20499;-64
2023/06/05 04:46:39;;;;;;;863.37;808.40;;;10.40;99.90;;;;;;6010746;23;20476;-64
2023/06/05 04:49:08;;;;;;;847.70;796.20;;;10.50;99.90;;;;;;6010536;23;20476;-64
2023/06/05 04:51:36;;;;;;;854.20;801.80;;;10.60;99.90;;;;;;6010826;23;20534;-64
2023/06/05 04:54:03;;;;;;;862.50;808.00;;;10.70;99.90;;;;;;6009399;23;20932;-64
2023/06/05 04:56:32;;;;;;;868.60;809.97;;;10.80;99.90;;;;;;6010705;23;20420;-65
2023/06/05 04:58:59;;;;;;;857.83;802.07;;;10.90;99.90;;;;;;6010540;23;20721;-64
2023/06/05 05:01:27;;;;;;;843.80;793.10;;;11.00;99.90;;;;;;6008931;23;20424;-64
2023/06/05 05:03:54;;;;;;;790.73;748.67;;;11.20;99.90;;;;;;6009446;23;20456;-65
2023/06/05 05:06:22;;;;;;;789.10;746.73;;;11.40;99.90;;;;;;6010362;23;20428;-65
2023/06/05 05:08:49;;;;;;;734.73;699.03;;;11.50;99.90;;;;;;6010169;23;20511;-65
2023/06/05 05:11:17;;;;;;;746.63;708.60;;;11.70;99.90;;;;;;6010417;23;20499;-65
2023/06/05 05:13:44;;;;;;;677.50;645.93;;;11.80;99.90;;;;;;6009528;23;20421;-64
2023/06/05 05:16:11;;;;;;;623.73;595.00;;;11.90;99.90;;;;;;6009407;23;20427;-64
2023/06/05 05:18:40;;;;;;;464.20;444.83;;;12.20;99.90;;;;;;6009979;23;20474;-65
2023/06/05 05:21:07;;;;;;;205.73;197.83;;;12.50;99.90;;;;;;6010120;23;20505;-64
2023/06/05 05:23:36;;;;;;;113.87;109.57;;;12.90;99.90;;;;;;6009443;23;20418;-64
2023/06/05 05:26:03;;;;;;;22.23;20.57;;;13.30;99.90;;;;;;6008002;23;20422;-64
2023/06/05 05:28:30;;;;;;;14.27;10.17;;;13.60;99.90;;;;;;6009708;23;20418;-65
2023/06/05 05:30:57;;;;;;;9.93;6.17;;;13.90;99.90;;;;;;6009812;23;20439;-65
2023/06/05 05:33:24;;;;;;;13.20;5.83;;;14.20;99.90;;;;;;6009664;23;20791;-65
2023/06/05 05:35:51;;;;;;;10.30;5.50;;;14.40;99.90;;;;;;6009770;23;20424;-65
2023/06/05 05:38:18;;;;;;;11.97;5.23;;;15.00;99.90;;;;;;6010003;23;20498;-65
2023/06/05 05:40:46;;;;;;;15.03;5.57;;;15.00;99.90;;;;;;6010307;23;20735;-64
2023/06/05 05:43:13;;;;;;;9.10;5.47;;;15.30;99.90;;;;;;6008425;23;20430;-64
2023/06/05 05:45:42;;;;;;;15.80;5.50;;;15.20;99.90;;;;;;6010658;23;20419;-64
2023/06/05 05:48:09;;;;;;;13.37;5.90;;;15.50;99.90;;;;;;6009920;23;20418;-64
2023/06/05 05:50:36;;;;;;;13.67;6.17;;;15.60;98.30;;;;;;6009786;23;20788;-64
2023/06/05 05:53:03;;;;;;;10.17;5.80;;;15.90;96.90;;;;;;6009805;23;20443;-64
2023/06/05 05:55:30;;;;;;;10.40;5.40;;;16.00;96.80;;;;;;6010312;23;20474;-64
2023/06/05 05:57:58;;;;;;;9.73;4.20;;;16.10;94.40;;;;;;6008261;23;20418;-64
2023/06/05 06:00:25;;;;;;;9.53;4.43;;;15.90;94.00;;;;;;6010613;23;20418;-64
2023/06/05 06:02:53;;;;;;;10.63;5.07;;;16.00;93.80;;;;;;6009566;23;20422;-64
2023/06/05 06:05:20;;;;;;;12.37;4.83;;;16.20;93.50;;;;;;6010234;23;20419;-64
2023/06/05 06:07:47;;;;;;;9.00;5.23;;;16.30;93.60;;;;;;6011880;23;20502;-64
2023/06/05 06:10:14;;;;;;;14.50;5.50;;;16.50;92.80;;;;;;6010741;23;20454;-64
2023/06/05 06:12:41;;;;;;;11.10;5.30;;;16.50;91.90;;;;;;6011285;23;20442;-65
2023/06/05 06:15:10;;;;;;;10.13;5.50;;;16.80;91.60;;;;;;6011861;23;20415;-65
2023/06/05 06:17:37;;;;;;;13.97;5.50;;;16.90;90.40;;;;;;6011560;23;20963;-65
2023/06/05 06:20:05;;;;;;;10.43;5.60;;;17.00;89.60;;;;;;6011714;23;20419;-65
2023/06/05 06:22:32;;;;;;;9.43;4.83;;;17.10;85.90;;;;;;6011355;23;20954;-65
2023/06/05 06:24:59;;;;;;;17.93;6.63;;;17.30;85.60;;;;;;6011837;23;20425;-65
2023/06/05 06:27:26;;;;;;;8.83;4.83;;;17.80;84.10;;;;;;6011174;23;20895;-65
2023/06/05 06:29:53;;;;;;;11.67;5.47;;;17.80;76.20;;;;;;6011832;23;20928;-65
2023/06/05 06:32:22;;;;;;;12.20;5.53;;;17.70;77.20;;;;;;6011436;23;20760;-65
2023/06/05 06:34:50;;;;;;;8.13;4.43;;;17.90;78.70;;;;;;6011968;23;20741;-65
2023/06/05 06:37:17;;;;;;;12.27;5.17;;;17.80;76.20;;;;;;6011568;23;20668;-64
2023/06/05 06:39:45;;;;;;;9.73;4.87;;;18.20;74.40;;;;;;6011519;23;20420;-64
2023/06/05 06:42:12;;;;;;;10.00;4.60;;;18.40;75.70;;;;;;6009596;23;20478;-64
2023/06/05 06:44:39;;;;;;;7.80;5.00;;;18.50;68.70;;;;;;6009444;23;20447;-65
2023/06/05 06:47:08;;;;;;;10.27;4.73;;;18.30;68.60;;;;;;6009019;23;20418;-64
2023/06/05 06:49:36;;;;;;;10.30;4.57;;;18.60;68.80;;;;;;6007141;23;20478;-64
2023/06/05 06:52:03;;;;;;;9.30;4.43;;;19.20;64.00;;;;;;6007580;23;20950;-64
2023/06/05 06:54:30;;;;;;;12.43;4.60;;;19.00;60.90;;;;;;6008907;23;20419;-64
2023/06/05 06:56:57;;;;;;;11.27;4.82;;;19.00;63.30;;;;;;6010063;23;20803;-64
2023/06/05 06:59:24;;;;;;;9.33;4.60;;;18.90;62.10;;;;;;6011635;23;20484;-64
2023/06/05 07:02:11;;;;;;;11.00;4.40;;;19.20;61.20;;;;;;6011035;23;20415;-64
2023/06/05 07:04:41;;;;;;;9.53;4.60;;;19.40;61.30;;;;;;6009045;23;20403;-64
2023/06/05 07:07:09;;;;;;;9.93;4.40;;;19.10;57.00;;;;;;6008224;23;20431;-65
2023/06/05 07:09:36;;;;;;;11.17;4.97;;;19.20;58.10;;;;;;6008954;23;20790;-64
2023/06/05 07:12:05;;;;;;;9.63;4.17;;;19.20;54.90;;;;;;6008181;23;20529;-64
2023/06/05 07:14:32;;;;;;;10.30;3.93;;;19.20;56.40;;;;;;6008706;23;20418;-64
2023/06/05 07:16:59;;;;;;;8.10;4.00;;;19.10;58.40;;;;;;6008452;23;20414;-64
2023/06/05 07:19:27;;;;;;;9.03;4.30;;;19.60;59.60;;;;;;6008827;23;20475;-65
2023/06/05 07:21:56;;;;;;;11.13;4.23;;;19.50;57.20;;;;;;6007682;23;20414;-64
2023/06/05 07:24:25;;;;;;;9.40;3.90;;;19.30;52.60;;;;;;6019049;23;20439;-64
2023/06/05 07:26:53;;;;;;;12.70;4.10;;;19.60;53.90;;;;;;6009648;23;20506;-64
2023/06/05 07:29:20;;;;;;;12.33;4.03;;;19.80;57.40;;;;;;6009637;23;20905;-64
2023/06/05 07:31:48;;;;;;;8.63;3.17;;;19.80;53.00;;;;;;6010295;23;20504;-65
2023/06/05 07:34:15;;;;;;;10.20;4.53;;;19.90;53.10;;;;;;6009941;23;20710;-66
2023/06/05 07:36:42;;;;;;;9.40;3.93;;;20.10;48.00;;;;;;6008708;23;20513;-66
2023/06/05 07:39:11;;;;;;;11.53;3.97;;;20.40;51.60;;;;;;6009883;23;20414;-67
2023/06/05 07:41:39;;;;;;;8.43;4.53;;;20.50;44.90;;;;;;5965919;23;1058457;-67
2023/06/05 07:44:06;;;;;;;23.13;6.03;;;20.50;44.90;;;;;;6009517;23;20580;-67
2023/06/05 07:46:33;;;;;;;11.23;4.10;;;20.40;47.80;;;;;;6011164;23;20757;-67
2023/06/05 07:49:00;;;;;;;9.90;4.43;;;20.60;45.10;;;;;;6010816;23;20722;-67
2023/06/05 07:51:26;;;;;;;8.80;4.33;;;20.80;41.30;;;;;;6011189;23;20418;-66
2023/06/05 07:53:53;;;;;;;8.80;4.47;;;20.80;42.00;;;;;;6010722;23;20429;-66
2023/06/05 07:56:23;;;;;;;11.70;4.17;;;20.90;42.50;;;;;;6010896;23;20418;-67
2023/06/05 07:58:51;;;;;;;8.80;3.93;;;20.80;39.30;;;;;;6011035;23;20490;-67
2023/06/05 08:01:20;;;;;;;7.00;3.33;;;20.90;36.20;;;;;;6010853;23;20423;-67
2023/06/05 08:03:47;;;;;;;11.60;3.70;;;21.30;39.30;;;;;;6010411;23;20414;-67
2023/06/05 08:06:14;;;;;;;9.40;4.03;;;21.20;36.40;;;;;;6009227;23;20749;-67
2023/06/05 08:08:41;;;;;;;13.50;6.33;;;21.70;36.90;;;;;;6009766;23;20457;-67
2023/06/05 08:11:08;;;;;;;8.90;4.07;;;21.60;36.80;;;;;;6009903;23;20426;-67
2023/06/05 08:13:37;;;;;;;10.63;3.67;;;22.00;37.70;;;;;;6009348;23;20443;-66
2023/06/05 08:16:04;;;;;;;12.63;3.77;;;22.20;35.20;;;;;;6010021;23;20422;-66
2023/06/05 08:18:31;;;;;;;10.77;3.80;;;22.40;30.30;;;;;;6008508;23;20419;-66
2023/06/05 08:20:58;;;;;;;7.37;3.50;;;22.40;28.80;;;;;;6009181;23;20446;-66
2023/06/05 08:23:26;;;;;;;9.03;3.93;;;22.30;28.70;;;;;;6009234;23;20437;-66
2023/06/05 08:25:53;;;;;;;13.90;4.63;;;22.10;29.00;;;;;;6009438;23;20478;-66
2023/06/05 08:28:19;;;;;;;8.13;3.43;;;22.00;30.70;;;;;;6009062;23;20418;-66
2023/06/05 08:30:48;;;;;;;8.20;3.43;;;22.10;35.60;;;;;;6009617;23;20419;-67
2023/06/05 08:33:15;;;;;;;9.30;3.67;;;22.40;28.70;;;;;;6009014;23;20443;-67
2023/06/05 08:35:42;;;;;;;10.87;4.33;;;22.20;34.20;;;;;;6009325;23;20430;-66
2023/06/05 08:38:09;;;;;;;14.80;4.10;;;22.50;32.10;;;;;;6009335;23;20426;-66
2023/06/05 08:40:38;;;;;;;9.97;3.80;;;22.20;28.70;;;;;;6009657;23;20445;-66
2023/06/05 08:43:05;;;;;;;9.30;3.50;;;22.30;33.10;;;;;;6008735;23;20462;-66
2023/06/05 08:45:32;;;;;;;12.53;3.80;;;22.70;29.00;;;;;;6009089;23;20899;-67
2023/06/05 08:48:02;;;;;;;7.70;3.00;;;23.00;29.20;;;;;;6009327;23;20422;-67
2023/06/05 08:50:30;;;;;;;8.83;3.70;;;22.80;26.30;;;;;;6009127;23;20430;-67
2023/06/05 08:52:59;;;;;;;7.73;3.07;;;22.60;25.30;;;;;;6008049;23;20494;-67
2023/06/05 08:55:27;;;;;;;9.63;3.40;;;22.70;29.40;;;;;;6008143;23;20418;-67
2023/06/05 08:57:54;;;;;;;6.80;2.87;;;23.10;23.40;;;;;;6008765;23;20423;-66
2023/06/05 09:00:23;;;;;;;14.90;3.53;;;23.20;25.10;;;;;;6009656;23;20418;-66
2023/06/05 09:02:49;;;;;;;10.00;3.73;;;23.70;22.40;;;;;;6009372;23;20733;-66
2023/06/05 09:05:18;;;;;;;6.00;3.03;;;23.40;20.00;;;;;;6010119;23;20419;-66
2023/06/05 09:07:45;;;;;;;8.23;2.43;;;23.40;19.40;;;;;;6009200;23;20419;-67
2023/06/05 09:10:26;;;;;;;7.83;3.10;;;23.40;22.20;;;;;;6009342;23;20423;-67
2023/06/05 09:12:57;;;;;;;7.40;2.87;;;23.70;22.40;;;;;;6009383;23;20445;-66
2023/06/05 09:15:25;;;;;;;7.63;2.67;;;24.10;18.80;;;;;;6010637;23;20418;-66
2023/06/05 09:18:09;;;;;;;7.53;2.83;;;23.90;19.40;;;;;;6010267;23;20422;-67
2023/06/05 09:20:38;;;;;;;6.47;3.10;;;23.80;21.80;;;;;;6010419;23;20407;-67
2023/06/05 09:23:21;;;;;;;9.13;3.07;;;23.80;18.00;;;;;;6009323;23;20414;-66
2023/06/05 09:25:50;;;;;;;7.43;2.40;;;23.60;22.30;;;;;;6009825;23;20403;-66
2023/06/05 09:28:17;;;;;;;7.33;2.03;;;23.70;17.20;;;;;;6010268;23;20471;-66
2023/06/05 09:30:55;;;;;;;9.23;2.93;;;23.80;14.90;;;;;;6010321;23;20419;-66
2023/06/05 09:33:23;;;;;;;9.03;3.20;;;24.50;10.40;;;;;;6009800;23;20482;-66
2023/06/05 09:36:03;;;;;;;8.13;2.53;;;24.20;13.50;;;;;;6010060;23;20529;-66
2023/06/05 09:38:30;;;;;;;6.30;2.80;;;24.60;11.50;;;;;;6010219;23;20402;-66
2023/06/05 09:41:03;;;;;;;10.23;3.20;;;24.80;11.00;;;;;;6010883;23;20914;-66
2023/06/05 09:43:29;;;;;;;11.73;4.20;;;24.90;11.70;;;;;;6011814;23;20392;-66
2023/06/05 09:45:56;;;;;;;13.03;2.73;;;25.10;15.80;;;;;;6012328;23;20414;-66
2023/06/05 09:48:25;;;;;;;9.93;2.63;;;25.10;11.30;;;;;;6010545;23;20421;-66
2023/06/05 09:54:16;;;;;;;6.07;2.20;;;25.20;8.20;;;;;;6018598;23;20527;-66
2023/06/05 09:56:49;;;;;;;7.97;2.80;;;24.90;4.70;;;;;;6011558;23;20418;-66
2023/06/05 09:59:21;;;;;;;11.10;2.63;;;25.10;6.80;;;;;;6011959;23;20455;-66
2023/06/05 10:01:51;;;;;;;5.93;2.40;;;25.30;12.60;;;;;;6011727;23;20868;-66
2023/06/05 10:04:21;;;;;;;12.50;3.40;;;26.10;1.00;;;;;;6011531;23;20415;-66
2023/06/05 10:06:49;;;;;;;4.63;1.63;;;25.70;1.00;;;;;;6012067;23;20875;-65
2023/06/05 10:09:18;;;;;;;8.57;2.47;;;25.90;1.00;;;;;;6012345;23;20446;-66
2023/06/05 10:11:49;;;;;;;6.20;2.40;;;26.00;1.00;;;;;;6012151;23;20429;-66
2023/06/05 10:14:16;;;;;;;9.43;3.00;;;25.40;1.00;;;;;;6012043;23;20426;-66
2023/06/05 10:16:44;;;;;;;6.60;3.10;;;26.20;1.00;;;;;;6012147;23;20717;-65
2023/06/05 10:19:11;;;;;;;7.70;3.13;;;26.30;1.00;;;;;;6012461;23;20427;-66
2023/06/05 10:21:37;;;;;;;10.37;3.20;;;26.10;1.00;;;;;;6012087;23;20425;-66
2023/06/05 10:24:07;;;;;;;9.70;2.30;;;26.00;1.00;;;;;;6011688;23;20737;-66
2023/06/05 10:27:19;;;;;;;7.03;2.83;;;26.10;1.00;;;;;;6012112;23;20418;-66
2023/06/05 10:30:15;;;;;;;7.40;2.27;;;26.60;1.10;;;;;;6003326;23;20484;-66
2023/06/05 10:32:54;;;;;;;8.83;2.60;;;26.40;1.00;;;;;;6011826;23;20427;-66
2023/06/05 10:35:35;;;;;;;6.83;2.30;;;26.10;1.00;;;;;;6012455;23;20402;-64
2023/06/05 10:38:16;;;;;;;5.60;2.10;;;25.90;1.00;;;;;;6011552;23;20867;-66
2023/06/05 10:40:43;;;;;;;5.43;1.97;;;26.20;1.00;;;;;;6011891;23;20403;-66
2023/06/05 10:43:30;;;;;;;7.57;2.40;;;26.00;1.00;;;;;;6011438;23;20446;-66
2023/06/05 10:46:01;;;;;;;7.67;2.20;;;25.80;1.00;;;;;;6011962;23;20859;-66
2023/06/05 10:49:05;;;;;;;8.10;2.70;;;26.00;1.00;;;;;;6012000;23;20708;-66
2023/06/05 10:51:37;;;;;;;6.30;2.40;;;26.10;1.00;;;;;;6011871;23;20812;-66
2023/06/05 10:54:05;;;;;;;6.87;2.27;;;26.60;1.00;;;;;;6011176;23;20470;-66
2023/06/05 10:56:55;;;;;;;6.47;2.10;;;26.10;1.00;;;;;;6011650;23;20418;-66
2023/06/05 10:59:23;;;;;;;8.33;2.10;;;27.50;1.00;;;;;;6011998;23;20425;-66
2023/06/05 11:02:25;;;;;;;8.40;2.60;;;27.30;1.00;;;;;;6011871;23;20420;-66
2023/06/05 11:05:13;;;;;;;7.93;2.27;;;28.00;1.00;;;;;;6012044;23;20735;-65
2023/06/05 11:07:42;;;;;;;9.30;2.50;;;28.10;1.00;;;;;;6011243;23;20429;-65
2023/06/05 11:10:15;;;;;;;5.57;2.37;;;28.10;1.00;;;;;;6011137;23;20425;-66
2023/06/05 11:12:59;;;;;;;6.80;2.70;;;28.50;1.00;;;;;;6010009;23;20482;-66
2023/06/05 11:15:40;;;;;;;7.20;1.97;;;27.80;1.00;;;;;;6011585;23;20410;-66
2023/06/05 11:18:34;;;;;;;7.60;2.80;;;28.40;1.00;;;;;;6011484;23;20448;-66
2023/06/05 11:21:02;;;;;;;6.33;2.20;;;28.70;1.00;;;;;;6011877;23;20403;-66
2023/06/05 11:23:29;;;;;;;7.47;3.00;;;28.30;1.00;;;;;;6011501;23;20415;-66
2023/06/05 11:25:58;;;;;;;7.20;2.70;;;29.40;1.00;;;;;;6011777;23;20393;-66
2023/06/05 11:28:41;;;;;;;7.97;2.53;;;29.80;1.00;;;;;;6011481;23;20722;-66
2023/06/05 11:31:08;;;;;;;6.10;2.63;;;29.50;1.00;;;;;;6011664;23;20430;-66
2023/06/05 11:33:37;;;;;;;7.30;2.50;;;29.00;1.00;;;;;;6011305;23;20529;-68
2023/06/05 11:36:06;;;;;;;6.60;3.00;;;28.30;1.00;;;;;;6011746;23;20480;-67
2023/06/05 11:38:34;;;;;;;5.20;2.47;;;27.80;1.00;;;;;;6011709;23;20419;-67
2023/06/05 11:41:06;;;;;;;6.70;2.33;;;28.10;1.00;;;;;;6011769;23;20418;-66
2023/06/05 11:43:33;;;;;;;6.40;2.50;;;28.40;1.00;;;;;;6010187;23;20417;-68
2023/06/05 11:46:00;;;;;;;8.40;3.13;;;28.10;1.00;;;;;;6011684;23;20174;-68
2023/06/05 11:48:27;;;;;;;6.43;2.57;;;28.90;1.00;;;;;;6011469;23;20419;-67
2023/06/05 11:50:58;;;;;;;5.87;2.47;;;28.00;1.00;;;;;;6011624;23;20419;-66
2023/06/05 11:53:26;;;;;;;6.70;2.70;;;28.10;1.00;;;;;;6010816;23;20931;-66
2023/06/05 11:56:06;;;;;;;7.43;2.33;;;28.90;1.00;;;;;;6011394;23;20425;-67
2023/06/05 11:58:35;;;;;;;8.20;2.83;;;29.00;1.00;;;;;;6011433;23;20799;-66
2023/06/05 12:01:07;;;;;;;6.00;2.30;;;29.40;1.00;;;;;;6011421;23;20750;-66
2023/06/05 12:03:35;;;;;;;7.07;2.90;;;30.00;1.00;;;;;;6010595;23;20414;-66
2023/06/05 12:06:04;;;;;;;7.07;2.50;;;30.20;1.00;;;;;;6011220;23;20502;-66
2023/06/05 12:08:33;;;;;;;6.90;2.37;;;30.60;1.00;;;;;;6010810;23;20393;-65
2023/06/05 12:11:00;;;;;;;7.77;3.23;;;31.10;1.00;;;;;;6010984;23;20419;-67
2023/06/05 12:13:48;;;;;;;7.53;2.83;;;30.70;1.00;;;;;;6010569;23;20936;-66
2023/06/05 12:16:16;;;;;;;7.40;3.20;;;30.40;1.00;;;;;;6010863;23;20403;-67
2023/06/05 12:18:43;;;;;;;8.20;3.17;;;30.10;1.00;;;;;;6010417;23;20419;-67
2023/06/05 12:21:22;;;;;;;8.13;2.53;;;29.60;1.00;;;;;;6010397;23;20389;-68
2023/06/05 12:23:50;;;;;;;6.03;2.37;;;28.60;1.00;;;;;;6010861;23;20377;-67
2023/06/05 12:26:17;;;;;;;7.43;2.60;;;28.40;1.00;;;;;;6011332;23;20418;-67
2023/06/05 12:28:46;;;;;;;6.10;2.60;;;28.70;1.00;;;;;;6010784;23;20414;-66
2023/06/05 12:31:34;;;;;;;11.93;2.93;;;29.90;1.00;;;;;;6011201;23;20501;-66
2023/06/05 12:34:01;;;;;;;5.63;2.67;;;30.20;1.00;;;;;;6010766;23;20754;-67
2023/06/05 12:36:29;;;;;;;9.87;3.20;;;30.50;1.00;;;;;;6011199;23;20700;-66
2023/06/05 12:38:56;;;;;;;9.80;2.53;;;30.80;1.00;;;;;;6011042;23;20457;-66
2023/06/05 12:41:23;;;;;;;7.73;3.13;;;31.20;1.00;;;;;;6011048;23;20465;-67
2023/06/05 12:43:59;;;;;;;7.30;2.73;;;30.80;1.00;;;;;;6010564;23;20406;-66
2023/06/05 12:46:26;;;;;;;6.00;2.67;;;30.50;1.00;;;;;;6011004;23;20435;-67
2023/06/05 12:48:53;;;;;;;7.97;2.63;;;29.50;1.00;;;;;;6010373;23;20423;-67